This is the latest recevied weather packets stored in our database for station/object OK1FET-6. If no packets are shown the sender has not sent any weather packets the latest 10 day(s).
| Time | Temp. | Humidity | Pressure | Rain* | Wind** | Luminosity | Snow |
|---|---|---|---|---|---|---|---|
| 1778402543 | 33.33° C | 42% | 1015.5 hPa | 0 mm | - | - | - |
| 1778401947 | 31.11° C | 44% | 1015.5 hPa | 0 mm | - | - | - |
| 1778401351 | 28.33° C | 47% | 1015.6 hPa | 0 mm | - | - | - |
| 1778400755 | 23.89° C | 51% | 1015.6 hPa | 0 mm | - | - | - |
| 1778400159 | 20.56° C | 55% | 1015.7 hPa | 0 mm | - | - | - |
| 1778399562 | 18.33° C | 57% | 1015.7 hPa | 0 mm | - | - | - |
| 1778398966 | 17.22° C | 59% | 1015.7 hPa | 0 mm | - | - | - |
| 1778398370 | 16.11° C | 60% | 1015.7 hPa | 0 mm | - | - | - |
| 1778397774 | 15° C | 61% | 1016 hPa | 0 mm | - | - | - |
| 1778397178 | 14.44° C | 61% | 1016.1 hPa | 0 mm | - | - | - |
| 1778396582 | - | - | - | 0 mm | - | - | - |
| 1778396288 | - | - | - | 0 mm | - | - | - |
| 1778394609 | - | - | - | 0 mm | - | - | - |
| 1778394323 | 8.33° C | 69% | 1016.5 hPa | 0 mm | - | - | - |
| 1778393727 | 7.78° C | 70% | 1016.5 hPa | 0 mm | - | - | - |
| 1778393131 | 7.78° C | 69% | 1016.6 hPa | 0 mm | - | - | - |
| 1778392534 | 7.22° C | 70% | 1016.7 hPa | 0 mm | - | - | - |
| 1778391938 | 7.22° C | 69% | 1016.8 hPa | 0 mm | - | - | - |
| 1778391342 | 7.22° C | 70% | 1016.8 hPa | 0 mm | - | - | - |
| 1778390746 | 6.11° C | 70% | 1016.8 hPa | 0 mm | - | - | - |
| 1778390150 | 5.56° C | 70% | 1016.8 hPa | 0 mm | - | - | - |
| 1778389554 | 5° C | 70% | 1016.8 hPa | 0 mm | - | - | - |
| 1778388958 | 5° C | 70% | 1016.8 hPa | 0 mm | - | - | - |
| 1778388362 | 4.44° C | 70% | 1016.7 hPa | 0 mm | - | - | - |
| 1778387766 | 4.44° C | 70% | 1016.8 hPa | 0 mm | - | - | - |
* Rain latest hour (hover to see other rain measurements)
** Current wind speed in m/s (hover to see current wind gust speed)